Time;durP1;ratioP1;P1;durP2;ratioP2;P2;SDS_P1;SDS_P2;PMS_P1;PMS_P2;Temp;Humidity;BMP_temperature;BMP_pressure;BME280_temperature;BME280_humidity;BME280_pressure;Samples;Min_cycle;Max_cycle;Signal;HPM_P1;HPM_P2
2023/10/26 00:00:38;;;;;;;34.25;19.48;;;9.00;99.90;;;;;;5023706;28;20035;-66
2023/10/26 00:03:04;;;;;;;32.15;19.30;;;9.10;99.90;;;;;;5035770;28;20090;-65
2023/10/26 00:05:30;;;;;;;24.40;16.95;;;9.20;99.90;;;;;;5053465;28;20044;-66
2023/10/26 00:07:55;;;;;;;35.13;22.05;;;9.10;99.90;;;;;;5036736;28;20060;-66
2023/10/26 00:10:21;;;;;;;28.83;17.67;;;9.00;99.90;;;;;;5022398;28;20067;-66
2023/10/26 00:12:47;;;;;;;31.15;20.15;;;9.20;99.90;;;;;;5036589;28;20053;-66
2023/10/26 00:15:12;;;;;;;28.52;16.33;;;9.10;99.90;;;;;;5035871;28;20053;-66
2023/10/26 00:17:38;;;;;;;31.10;17.75;;;8.90;99.90;;;;;;5036628;28;20048;-66
2023/10/26 00:20:06;;;;;;;26.20;14.68;;;9.10;99.90;;;;;;5033498;28;20041;-66
2023/10/26 00:22:31;;;;;;;33.83;18.35;;;9.00;99.90;;;;;;5033066;28;20042;-66
2023/10/26 00:25:00;;;;;;;47.10;23.27;;;8.90;99.90;;;;;;5016430;28;20638;-66
2023/10/26 00:27:25;;;;;;;20.55;14.95;;;8.80;99.90;;;;;;5034655;28;20092;-65
2023/10/26 00:29:51;;;;;;;32.80;18.50;;;8.80;99.90;;;;;;5016113;28;20041;-65
2023/10/26 00:32:17;;;;;;;21.60;15.25;;;8.60;99.90;;;;;;5035298;28;20383;-65
2023/10/26 00:34:43;;;;;;;23.95;15.45;;;8.60;99.90;;;;;;5036393;28;20115;-65
2023/10/26 00:37:09;;;;;;;29.65;18.27;;;8.60;99.90;;;;;;5053253;28;20117;-65
2023/10/26 00:39:35;;;;;;;24.58;14.43;;;8.70;99.90;;;;;;5036527;28;20453;-65
2023/10/26 00:42:00;;;;;;;32.08;19.63;;;8.60;99.90;;;;;;5035330;28;20086;-65
2023/10/26 00:44:26;;;;;;;24.35;16.45;;;8.70;99.90;;;;;;5035571;28;20047;-65
2023/10/26 00:46:54;;;;;;;31.23;18.27;;;8.70;99.90;;;;;;5035811;28;20049;-65
2023/10/26 00:49:20;;;;;;;26.33;17.80;;;8.70;99.90;;;;;;5036262;28;20052;-65
2023/10/26 00:51:50;;;;;;;31.85;16.63;;;8.60;99.90;;;;;;5024776;28;20056;-65
2023/10/26 00:54:20;;;;;;;24.63;16.98;;;8.70;99.90;;;;;;5032853;28;20041;-65
2023/10/26 00:56:49;;;;;;;23.40;15.90;;;8.60;99.90;;;;;;5033719;28;20057;-65
2023/10/26 00:59:16;;;;;;;28.30;17.70;;;8.50;99.90;;;;;;5048218;28;20562;-65
2023/10/26 01:01:45;;;;;;;59.35;23.65;;;8.70;99.90;;;;;;5016195;28;20041;-65
2023/10/26 01:04:14;;;;;;;21.65;16.00;;;8.50;99.90;;;;;;5048623;28;20045;-65
2023/10/26 01:06:40;;;;;;;27.33;15.75;;;8.60;99.90;;;;;;5014672;28;20042;-65
2023/10/26 01:09:08;;;;;;;33.03;15.52;;;8.50;99.90;;;;;;5015228;28;20049;-65
2023/10/26 01:11:34;;;;;;;23.85;15.90;;;8.40;99.90;;;;;;5051419;28;20114;-65
2023/10/26 01:14:00;;;;;;;139.63;36.45;;;8.30;99.90;;;;;;5035182;28;20434;-65
2023/10/26 01:16:25;;;;;;;143.02;34.10;;;8.40;99.90;;;;;;5035400;28;20075;-65
2023/10/26 01:18:51;;;;;;;120.03;30.58;;;8.30;99.90;;;;;;5035073;28;20449;-65
2023/10/26 01:21:17;;;;;;;66.75;28.30;;;8.30;99.90;;;;;;5052591;28;20128;-65
2023/10/26 01:23:43;;;;;;;46.17;21.67;;;8.20;99.90;;;;;;5035266;28;20064;-65
2023/10/26 01:26:08;;;;;;;36.85;16.90;;;8.20;99.90;;;;;;5034298;28;20041;-65
2023/10/26 01:28:34;;;;;;;22.27;13.98;;;8.30;99.90;;;;;;5024210;28;20042;-65
2023/10/26 01:31:00;;;;;;;22.65;14.52;;;8.20;99.90;;;;;;5043410;28;20037;-65
2023/10/26 01:33:25;;;;;;;18.23;13.60;;;8.20;99.90;;;;;;5034911;28;20425;-65
2023/10/26 01:35:51;;;;;;;14.55;11.15;;;8.20;99.90;;;;;;5053326;28;20120;-65
2023/10/26 01:38:16;;;;;;;14.30;11.10;;;8.10;99.90;;;;;;5031474;28;20048;-65
2023/10/26 01:40:42;;;;;;;13.20;10.15;;;8.10;99.90;;;;;;5034282;28;20091;-65
2023/10/26 01:43:08;;;;;;;16.35;12.35;;;8.10;99.90;;;;;;5018017;28;20044;-65
2023/10/26 01:45:34;;;;;;;16.65;11.05;;;8.00;99.90;;;;;;5034980;28;20048;-65
2023/10/26 01:48:00;;;;;;;30.23;13.60;;;8.00;99.90;;;;;;5033960;28;20033;-65
2023/10/26 01:50:26;;;;;;;137.82;25.48;;;7.90;99.90;;;;;;5008926;28;20039;-65
2023/10/26 01:52:53;;;;;;;178.48;43.33;;;8.00;99.90;;;;;;5034532;28;20045;-65
2023/10/26 01:55:19;;;;;;;171.00;33.33;;;7.90;99.90;;;;;;5033604;28;20043;-65
2023/10/26 01:57:44;;;;;;;49.78;19.45;;;7.90;99.90;;;;;;5015146;28;20200;-65
2023/10/26 02:00:11;;;;;;;46.50;19.73;;;8.00;99.90;;;;;;5032548;28;20083;-65
2023/10/26 02:02:36;;;;;;;31.60;19.00;;;8.10;99.90;;;;;;5014625;28;20049;-65
2023/10/26 02:05:03;;;;;;;186.15;32.28;;;8.10;99.90;;;;;;5032171;28;20037;-65
2023/10/26 02:07:28;;;;;;;36.97;19.15;;;8.00;99.90;;;;;;5048284;28;20110;-65
2023/10/26 02:09:55;;;;;;;61.55;21.42;;;7.90;99.90;;;;;;4997504;28;20041;-65
2023/10/26 02:12:23;;;;;;;62.85;17.75;;;8.00;99.90;;;;;;5014253;28;20494;-65
2023/10/26 02:14:48;;;;;;;57.83;15.45;;;8.00;99.90;;;;;;5031874;28;20043;-65
2023/10/26 02:17:15;;;;;;;84.65;15.82;;;8.00;99.90;;;;;;5013838;28;20124;-65
2023/10/26 02:19:41;;;;;;;172.20;26.35;;;7.90;99.90;;;;;;5014409;28;20045;-65
2023/10/26 02:22:06;;;;;;;96.68;18.55;;;7.90;99.90;;;;;;5049605;28;20052;-65
2023/10/26 02:24:32;;;;;;;83.00;20.85;;;7.90;99.90;;;;;;5051602;28;20128;-65
2023/10/26 02:26:57;;;;;;;78.93;19.13;;;7.80;99.90;;;;;;5014209;28;20087;-65
2023/10/26 02:29:23;;;;;;;30.73;15.07;;;7.70;99.90;;;;;;5014444;28;20386;-65
2023/10/26 02:31:49;;;;;;;25.85;12.98;;;7.90;99.90;;;;;;5014583;28;20128;-65
2023/10/26 02:34:15;;;;;;;21.92;12.07;;;7.80;99.90;;;;;;5014143;28;20099;-65
2023/10/26 02:36:41;;;;;;;91.13;27.73;;;7.70;99.90;;;;;;4997897;28;20483;-65
2023/10/26 02:39:06;;;;;;;18.05;13.50;;;7.80;99.90;;;;;;5013928;28;20049;-65
2023/10/26 02:41:32;;;;;;;135.90;31.02;;;7.90;99.90;;;;;;4997786;28;20045;-65
2023/10/26 02:43:57;;;;;;;61.05;20.70;;;7.80;99.90;;;;;;5032832;28;20051;-65
2023/10/26 02:46:23;;;;;;;95.35;25.92;;;7.70;99.90;;;;;;5034054;28;20097;-65
2023/10/26 02:48:49;;;;;;;134.25;28.48;;;7.70;99.90;;;;;;5017558;28;20118;-65
2023/10/26 02:51:15;;;;;;;35.05;20.42;;;7.90;99.90;;;;;;5032410;28;20049;-65
2023/10/26 02:53:42;;;;;;;98.18;33.35;;;7.90;99.90;;;;;;5033972;28;20064;-65
2023/10/26 02:56:08;;;;;;;290.80;48.22;;;7.80;99.90;;;;;;5033486;28;20048;-65
2023/10/26 02:58:33;;;;;;;83.05;22.45;;;7.80;99.90;;;;;;5033348;28;20506;-65
2023/10/26 03:01:04;;;;;;;119.80;28.20;;;7.60;99.90;;;;;;5032529;28;20048;-65
2023/10/26 03:03:30;;;;;;;110.60;29.15;;;7.60;99.90;;;;;;5034107;28;20167;-65
2023/10/26 03:05:58;;;;;;;150.38;36.75;;;7.70;99.90;;;;;;5032980;28;20127;-65
2023/10/26 03:08:24;;;;;;;30.70;15.80;;;7.70;99.90;;;;;;5033674;28;20048;-65
2023/10/26 03:10:50;;;;;;;136.95;27.58;;;7.60;99.90;;;;;;5007546;28;20045;-65
2023/10/26 03:13:15;;;;;;;284.33;58.22;;;7.70;99.90;;;;;;5013318;28;20050;-65
2023/10/26 03:15:41;;;;;;;126.20;31.60;;;7.50;99.90;;;;;;5031964;28;20045;-65
2023/10/26 03:18:07;;;;;;;246.05;52.88;;;7.50;99.90;;;;;;5013047;28;20064;-65
2023/10/26 03:20:33;;;;;;;49.53;14.90;;;7.60;99.90;;;;;;5023165;28;20091;-65
2023/10/26 03:22:58;;;;;;;96.25;18.90;;;7.30;99.90;;;;;;5033159;28;20037;-65
2023/10/26 03:25:24;;;;;;;96.72;19.20;;;7.40;99.90;;;;;;5050942;28;20036;-65
2023/10/26 03:27:50;;;;;;;50.22;15.27;;;7.30;99.90;;;;;;5030397;28;20057;-65
2023/10/26 03:30:17;;;;;;;69.20;22.25;;;7.20;99.90;;;;;;5018509;28;20095;-65
2023/10/26 03:32:44;;;;;;;118.85;27.67;;;7.20;99.90;;;;;;5017529;28;20151;-65
2023/10/26 03:35:10;;;;;;;77.20;22.02;;;7.30;99.90;;;;;;5035028;28;20443;-65
2023/10/26 03:37:36;;;;;;;94.88;25.17;;;7.10;99.90;;;;;;5017542;28;20049;-65
2023/10/26 03:40:05;;;;;;;65.90;20.17;;;7.20;99.90;;;;;;5036782;28;20048;-65
2023/10/26 03:42:32;;;;;;;102.40;26.70;;;7.40;99.90;;;;;;5037274;28;20041;-65
2023/10/26 03:44:57;;;;;;;92.25;23.38;;;7.30;99.90;;;;;;5036672;28;20493;-65
2023/10/26 03:47:23;;;;;;;68.40;22.58;;;7.30;99.90;;;;;;5036873;28;20055;-65
2023/10/26 03:49:52;;;;;;;70.20;22.88;;;7.30;99.90;;;;;;5054806;28;20037;-65
2023/10/26 03:52:19;;;;;;;96.82;24.55;;;7.40;99.90;;;;;;5037464;28;20118;-65
2023/10/26 03:54:45;;;;;;;116.18;27.17;;;7.30;99.90;;;;;;5020366;28;20123;-65
2023/10/26 03:57:10;;;;;;;94.82;25.35;;;7.30;99.90;;;;;;5036311;28;20056;-65
2023/10/26 03:59:36;;;;;;;77.07;22.25;;;7.20;99.90;;;;;;5036530;28;20048;-65
2023/10/26 04:02:02;;;;;;;149.35;36.08;;;7.30;99.90;;;;;;5019784;28;20052;-65
2023/10/26 04:04:28;;;;;;;23.40;13.20;;;7.20;99.90;;;;;;5036937;28;20037;-65
2023/10/26 04:06:54;;;;;;;18.17;12.35;;;7.10;99.90;;;;;;5036332;28;20071;-65
2023/10/26 04:09:19;;;;;;;23.35;12.32;;;7.10;99.90;;;;;;5035997;28;20121;-65
2023/10/26 04:11:45;;;;;;;19.95;12.13;;;7.10;99.90;;;;;;5026476;28;20049;-65
2023/10/26 04:14:11;;;;;;;56.25;19.80;;;7.10;99.90;;;;;;5016578;28;20180;-65
2023/10/26 04:16:37;;;;;;;87.15;23.42;;;7.10;99.90;;;;;;5016010;28;20115;-65
2023/10/26 04:19:03;;;;;;;23.27;11.52;;;6.90;99.90;;;;;;5010350;28;20038;-65
2023/10/26 04:21:28;;;;;;;40.20;15.38;;;7.00;99.90;;;;;;5014387;28;20459;-65
2023/10/26 04:23:54;;;;;;;39.03;14.02;;;7.00;99.90;;;;;;5029728;28;20042;-65
2023/10/26 04:26:19;;;;;;;24.40;13.68;;;6.80;99.90;;;;;;5029714;28;20054;-65
2023/10/26 04:28:45;;;;;;;25.13;14.35;;;7.00;99.90;;;;;;5029368;28;20042;-65
2023/10/26 04:31:11;;;;;;;61.75;20.42;;;6.80;99.90;;;;;;5032465;28;20172;-65
2023/10/26 04:33:36;;;;;;;29.25;13.68;;;6.80;99.90;;;;;;5016491;28;20048;-65
2023/10/26 04:36:04;;;;;;;32.00;14.32;;;6.90;99.90;;;;;;5015525;28;20037;-65
2023/10/26 04:38:30;;;;;;;22.33;11.32;;;6.90;99.90;;;;;;5000023;28;20037;-65
2023/10/26 04:40:57;;;;;;;29.10;14.40;;;7.00;99.90;;;;;;4999480;28;20038;-65
2023/10/26 04:43:23;;;;;;;22.38;13.93;;;7.00;99.90;;;;;;5015944;28;20045;-65
2023/10/26 04:45:49;;;;;;;23.75;9.95;;;7.00;99.90;;;;;;5016291;28;20048;-65
2023/10/26 04:48:14;;;;;;;20.77;10.82;;;6.90;99.90;;;;;;5033120;28;20068;-65
2023/10/26 04:50:40;;;;;;;91.72;18.45;;;6.80;99.90;;;;;;5015689;28;20045;-65
2023/10/26 04:53:06;;;;;;;80.40;21.45;;;6.90;99.90;;;;;;5033113;28;20474;-65
2023/10/26 04:55:33;;;;;;;46.13;14.43;;;6.90;99.90;;;;;;5012048;28;20044;-65
2023/10/26 04:58:00;;;;;;;81.20;17.98;;;6.70;99.90;;;;;;5013436;28;20049;-65
2023/10/26 05:00:29;;;;;;;46.85;15.88;;;6.70;99.90;;;;;;5006782;28;20041;-65
2023/10/26 05:02:54;;;;;;;53.20;15.20;;;6.70;99.90;;;;;;5015009;28;20052;-65
2023/10/26 05:05:20;;;;;;;90.68;17.75;;;6.80;99.90;;;;;;5015162;28;20042;-65
2023/10/26 05:07:45;;;;;;;123.38;23.63;;;6.60;99.90;;;;;;5015865;28;20037;-65
2023/10/26 05:10:12;;;;;;;96.28;19.85;;;6.80;99.90;;;;;;4999500;28;20087;-65
2023/10/26 05:12:38;;;;;;;115.72;26.92;;;6.80;99.90;;;;;;5050282;28;20393;-65
2023/10/26 05:15:04;;;;;;;34.38;12.80;;;6.70;99.90;;;;;;5035042;28;20047;-65
2023/10/26 05:17:30;;;;;;;90.85;19.98;;;6.80;99.90;;;;;;5035760;28;20120;-65
2023/10/26 05:19:56;;;;;;;53.20;16.38;;;6.60;99.90;;;;;;5034508;28;20509;-65
2023/10/26 05:22:22;;;;;;;23.90;10.73;;;6.70;99.90;;;;;;5044752;28;20037;-65
2023/10/26 05:24:48;;;;;;;30.58;13.10;;;6.80;99.90;;;;;;5002566;28;20041;-65
2023/10/26 05:27:13;;;;;;;12.63;9.15;;;6.80;99.90;;;;;;5015086;28;20045;-65
2023/10/26 05:29:39;;;;;;;80.18;23.00;;;6.70;99.90;;;;;;5043733;28;20428;-65
2023/10/26 05:32:05;;;;;;;51.50;19.20;;;6.70;99.90;;;;;;5033870;28;20552;-65
2023/10/26 05:34:31;;;;;;;15.10;10.82;;;6.60;99.90;;;;;;5035449;28;20048;-65
2023/10/26 05:36:56;;;;;;;16.40;10.65;;;6.70;99.90;;;;;;5017051;28;20045;-65
2023/10/26 05:39:23;;;;;;;19.15;11.80;;;6.70;99.90;;;;;;5014984;28;20122;-65
2023/10/26 05:41:48;;;;;;;30.10;12.35;;;6.70;99.90;;;;;;5048537;28;20046;-65
2023/10/26 05:44:14;;;;;;;53.70;16.20;;;6.60;99.90;;;;;;5014742;28;20053;-65
2023/10/26 05:46:40;;;;;;;44.70;15.63;;;6.60;99.90;;;;;;5047928;28;20075;-65
2023/10/26 05:49:06;;;;;;;24.15;12.07;;;6.60;99.90;;;;;;5018205;28;20049;-65
2023/10/26 05:51:31;;;;;;;25.48;11.15;;;6.40;99.90;;;;;;5014803;28;20509;-64
2023/10/26 05:53:57;;;;;;;18.75;11.20;;;6.60;99.90;;;;;;5014252;28;20049;-65
2023/10/26 05:56:23;;;;;;;104.88;21.55;;;6.60;99.90;;;;;;4998721;28;20049;-65
2023/10/26 05:58:52;;;;;;;32.63;11.55;;;6.60;99.90;;;;;;5005816;28;20037;-65
2023/10/26 06:01:18;;;;;;;128.10;33.25;;;6.60;99.90;;;;;;5016924;28;20214;-65
2023/10/26 06:03:44;;;;;;;28.17;12.05;;;6.60;99.90;;;;;;5034547;28;20401;-65
2023/10/26 06:06:10;;;;;;;51.05;16.58;;;6.50;99.90;;;;;;5033429;28;20037;-65
2023/10/26 06:08:37;;;;;;;54.55;19.50;;;6.50;99.90;;;;;;5034406;28;20047;-65
2023/10/26 06:11:03;;;;;;;12.50;9.30;;;6.50;99.90;;;;;;5032115;28;20057;-65
2023/10/26 06:13:29;;;;;;;15.88;10.65;;;6.50;99.90;;;;;;5034709;28;20084;-65
2023/10/26 06:15:55;;;;;;;24.92;12.77;;;6.60;99.90;;;;;;5033412;28;20073;-65
2023/10/26 06:18:21;;;;;;;50.08;14.35;;;6.60;99.90;;;;;;5024424;28;20034;-65
2023/10/26 06:20:58;;;;;;;83.13;23.25;;;6.80;99.90;;;;;;5014962;28;20064;-65
2023/10/26 06:23:24;;;;;;;18.05;10.50;;;6.70;99.90;;;;;;5031241;28;20041;-65
2023/10/26 06:25:49;;;;;;;22.08;9.80;;;6.70;99.90;;;;;;5025936;28;20052;-65
2023/10/26 06:28:17;;;;;;;32.75;14.15;;;6.60;99.90;;;;;;5033635;28;20045;-65
2023/10/26 06:30:42;;;;;;;52.22;16.92;;;6.80;99.90;;;;;;5034237;28;20049;-65
2023/10/26 06:33:09;;;;;;;119.90;25.30;;;6.60;99.90;;;;;;5023451;28;20505;-65
2023/10/26 06:35:34;;;;;;;23.27;11.27;;;6.60;99.90;;;;;;5018711;28;20047;-65
2023/10/26 06:38:00;;;;;;;19.25;11.20;;;6.80;99.90;;;;;;5045512;28;20478;-65
2023/10/26 06:40:26;;;;;;;83.28;18.90;;;6.70;99.90;;;;;;5032274;28;20037;-65
2023/10/26 06:42:51;;;;;;;15.88;10.93;;;6.90;99.90;;;;;;5028486;28;20068;-65
2023/10/26 06:45:17;;;;;;;31.30;13.10;;;6.90;99.90;;;;;;5011064;28;20068;-65
2023/10/26 06:47:42;;;;;;;15.43;10.82;;;7.00;99.90;;;;;;5024554;28;20410;-65
2023/10/26 06:50:08;;;;;;;37.80;15.70;;;6.90;99.90;;;;;;5023065;28;20049;-65
2023/10/26 06:52:34;;;;;;;15.73;11.93;;;7.00;99.90;;;;;;5005828;28;20128;-65
2023/10/26 06:55:00;;;;;;;18.05;12.07;;;7.00;99.90;;;;;;5044483;28;20144;-65
2023/10/26 06:57:26;;;;;;;21.85;12.55;;;7.10;99.90;;;;;;5010962;28;20126;-65
2023/10/26 06:59:51;;;;;;;24.80;13.15;;;7.00;99.90;;;;;;5011356;28;20046;-65
2023/10/26 07:02:17;;;;;;;68.00;23.75;;;7.10;99.90;;;;;;5014891;28;20039;-65
2023/10/26 07:04:43;;;;;;;105.57;37.15;;;7.10;99.90;;;;;;5020777;28;20048;-65
2023/10/26 07:07:08;;;;;;;62.42;27.65;;;7.20;99.90;;;;;;5029164;28;20052;-65
2023/10/26 07:09:36;;;;;;;50.75;20.73;;;7.20;99.90;;;;;;5032881;28;20060;-65
2023/10/26 07:12:01;;;;;;;24.48;15.40;;;7.30;99.90;;;;;;5029223;28;20049;-65
2023/10/26 07:14:27;;;;;;;57.20;28.88;;;7.40;99.90;;;;;;5000397;28;20064;-65
2023/10/26 07:16:52;;;;;;;202.65;88.50;;;7.40;99.90;;;;;;5014695;28;20501;-65
2023/10/26 07:19:18;;;;;;;118.75;61.83;;;7.40;99.90;;;;;;5047947;28;20122;-65
2023/10/26 07:21:44;;;;;;;110.45;51.20;;;7.50;99.90;;;;;;5051451;28;20055;-65
2023/10/26 07:24:10;;;;;;;121.65;46.80;;;7.60;99.90;;;;;;5013442;28;20401;-65
2023/10/26 07:26:36;;;;;;;75.65;31.30;;;7.50;99.90;;;;;;5035231;28;20128;-65
2023/10/26 07:29:02;;;;;;;110.47;47.97;;;7.60;99.90;;;;;;5020353;28;20502;-65
2023/10/26 07:31:27;;;;;;;102.22;27.13;;;7.70;99.90;;;;;;5022367;28;20099;-65
2023/10/26 07:33:53;;;;;;;119.45;32.05;;;7.70;99.90;;;;;;5018112;28;20485;-65
2023/10/26 07:36:19;;;;;;;63.72;22.58;;;7.80;99.90;;;;;;5020668;28;20076;-65
2023/10/26 07:38:44;;;;;;;47.30;19.05;;;7.90;99.90;;;;;;5015368;28;20061;-65
2023/10/26 07:41:10;;;;;;;67.07;25.02;;;8.00;99.90;;;;;;5019823;28;20033;-65
2023/10/26 07:43:36;;;;;;;50.95;23.33;;;8.00;99.90;;;;;;5028985;28;20048;-65
2023/10/26 07:46:02;;;;;;;59.97;25.50;;;8.10;99.90;;;;;;5045026;28;20122;-65
2023/10/26 07:48:28;;;;;;;59.33;23.85;;;8.10;99.90;;;;;;5021991;28;20053;-65
2023/10/26 07:50:57;;;;;;;37.97;21.48;;;8.20;99.90;;;;;;5004706;28;20393;-65
2023/10/26 07:53:23;;;;;;;33.42;19.92;;;8.20;99.90;;;;;;5012492;28;20037;-65
2023/10/26 07:55:50;;;;;;;30.35;21.10;;;8.20;99.90;;;;;;5046460;28;20047;-66
2023/10/26 07:58:16;;;;;;;31.30;21.70;;;8.30;99.90;;;;;;5017625;28;20136;-65
2023/10/26 08:00:41;;;;;;;35.35;21.33;;;8.50;99.90;;;;;;5024815;28;20119;-65
2023/10/26 08:03:07;;;;;;;39.92;23.90;;;8.60;99.90;;;;;;5021464;28;20041;-65
2023/10/26 08:05:35;;;;;;;42.30;25.92;;;8.70;99.90;;;;;;5002787;28;20053;-65
2023/10/26 08:08:01;;;;;;;39.60;25.70;;;8.90;99.90;;;;;;5031860;28;20059;-65
2023/10/26 08:10:27;;;;;;;46.28;32.78;;;9.00;99.90;;;;;;5017097;28;20167;-65
2023/10/26 08:12:53;;;;;;;44.50;31.10;;;9.00;99.90;;;;;;5022321;28;20462;-65
2023/10/26 08:15:23;;;;;;;45.58;29.05;;;9.10;99.90;;;;;;5026208;28;20052;-65
2023/10/26 08:17:48;;;;;;;41.53;29.00;;;9.10;99.90;;;;;;5023400;28;20045;-65
2023/10/26 08:20:14;;;;;;;41.05;27.05;;;9.20;99.90;;;;;;5032783;28;20045;-65
2023/10/26 08:22:40;;;;;;;46.40;30.27;;;9.30;99.90;;;;;;5013640;28;20128;-65
2023/10/26 08:25:06;;;;;;;44.80;28.02;;;9.30;99.90;;;;;;4997198;28;20501;-65
2023/10/26 08:27:32;;;;;;;43.50;28.55;;;9.30;99.90;;;;;;5033129;28;20053;-65
2023/10/26 08:30:01;;;;;;;52.78;33.10;;;9.30;99.90;;;;;;5020410;28;20048;-65
2023/10/26 08:32:27;;;;;;;73.75;45.53;;;9.50;99.90;;;;;;5020185;28;20046;-65
2023/10/26 08:34:53;;;;;;;51.95;29.98;;;9.50;99.90;;;;;;5013150;28;20135;-65
2023/10/26 08:37:19;;;;;;;50.65;29.85;;;9.60;99.90;;;;;;5016977;28;20100;-65
2023/10/26 08:39:44;;;;;;;39.95;24.15;;;9.70;99.90;;;;;;5031557;28;20166;-65
2023/10/26 08:42:10;;;;;;;45.42;28.25;;;9.70;99.90;;;;;;5021621;28;20152;-65
2023/10/26 08:44:37;;;;;;;43.42;25.45;;;9.70;99.90;;;;;;5023209;28;20167;-65
2023/10/26 08:47:04;;;;;;;45.70;27.30;;;9.80;99.90;;;;;;5023019;28;20115;-65
2023/10/26 08:49:31;;;;;;;65.38;39.65;;;9.90;99.90;;;;;;5009648;28;20048;-65
2023/10/26 08:51:58;;;;;;;72.47;39.33;;;9.90;99.90;;;;;;5029539;28;20127;-65
2023/10/26 08:54:26;;;;;;;65.93;36.20;;;9.90;99.90;;;;;;5019837;28;20055;-65
2023/10/26 08:56:51;;;;;;;72.53;36.53;;;10.00;99.90;;;;;;5044941;28;20107;-66
2023/10/26 08:59:17;;;;;;;105.15;58.05;;;10.00;99.90;;;;;;5048283;28;20466;-66
2023/10/26 09:01:46;;;;;;;80.70;49.45;;;10.00;99.90;;;;;;5029950;28;20163;-65
2023/10/26 09:04:14;;;;;;;46.08;28.27;;;10.10;99.90;;;;;;5050627;28;20044;-65
2023/10/26 09:06:44;;;;;;;41.72;25.77;;;10.10;99.90;;;;;;5030834;28;20171;-66
2023/10/26 09:09:09;;;;;;;45.15;32.22;;;9.90;99.90;;;;;;5007264;28;20041;-65
2023/10/26 09:11:35;;;;;;;41.08;28.35;;;10.10;99.90;;;;;;5032226;28;20052;-65
2023/10/26 09:14:18;;;;;;;35.75;23.52;;;10.10;99.90;;;;;;5038054;28;20045;-66
2023/10/26 09:16:48;;;;;;;35.90;25.67;;;10.10;99.90;;;;;;5032291;28;20057;-65
2023/10/26 09:19:16;;;;;;;40.40;25.25;;;10.00;99.90;;;;;;5035880;28;20486;-64
2023/10/26 09:21:50;;;;;;;40.38;25.95;;;10.10;99.90;;;;;;5035464;28;20516;-66
2023/10/26 09:24:24;;;;;;;39.97;28.42;;;10.10;99.90;;;;;;5033977;28;20037;-66
2023/10/26 09:27:03;;;;;;;43.57;27.70;;;10.10;99.90;;;;;;5018962;28;20056;-66
2023/10/26 09:29:39;;;;;;;31.10;20.98;;;10.10;99.90;;;;;;5048937;28;20509;-66
2023/10/26 09:32:06;;;;;;;34.15;23.55;;;10.10;99.90;;;;;;5014533;28;20073;-66
2023/10/26 09:34:41;;;;;;;30.23;20.75;;;10.00;99.90;;;;;;5015640;28;20050;-64
2023/10/26 09:37:07;;;;;;;35.58;23.88;;;10.10;99.90;;;;;;5031673;28;20030;-64
2023/10/26 09:39:36;;;;;;;35.95;24.90;;;10.00;99.90;;;;;;5016451;28;20048;-63
2023/10/26 09:42:03;;;;;;;42.72;29.17;;;10.10;99.90;;;;;;4998665;28;20044;-65
2023/10/26 09:44:32;;;;;;;41.85;28.35;;;10.00;99.90;;;;;;5048590;28;20059;-66
2023/10/26 09:46:58;;;;;;;31.50;20.30;;;10.10;99.90;;;;;;5015044;28;20041;-66
2023/10/26 09:49:25;;;;;;;29.15;19.60;;;10.10;99.90;;;;;;5022983;28;20044;-66
2023/10/26 09:51:52;;;;;;;34.17;22.02;;;10.30;99.90;;;;;;5003375;28;20122;-66
2023/10/26 09:54:21;;;;;;;28.27;19.60;;;10.40;99.90;;;;;;5022050;28;20045;-63
2023/10/26 09:56:58;;;;;;;27.63;18.92;;;10.60;99.90;;;;;;5049703;28;20389;-65
2023/10/26 09:59:25;;;;;;;27.17;17.60;;;10.60;99.90;;;;;;5034322;28;20045;-65
2023/10/26 10:01:50;;;;;;;28.23;18.50;;;10.60;99.90;;;;;;5012105;28;20120;-65
2023/10/26 10:04:19;;;;;;;31.30;18.92;;;10.60;99.90;;;;;;5051244;28;20128;-65
2023/10/26 10:06:50;;;;;;;29.90;19.52;;;10.50;99.90;;;;;;5018106;28;20562;-65
2023/10/26 10:09:26;;;;;;;30.45;22.30;;;10.60;99.90;;;;;;5018869;28;20041;-65
2023/10/26 10:12:13;;;;;;;26.38;19.55;;;10.50;99.90;;;;;;5026263;28;20132;-65
2023/10/26 10:14:48;;;;;;;32.33;19.95;;;10.60;99.90;;;;;;5050837;28;20124;-64
2023/10/26 10:17:17;;;;;;;30.25;18.55;;;10.60;99.90;;;;;;5033947;28;20080;-66
2023/10/26 10:19:46;;;;;;;28.88;19.42;;;10.70;99.90;;;;;;5031832;28;20041;-67
2023/10/26 10:22:39;;;;;;;29.42;18.63;;;10.80;99.90;;;;;;5030608;28;20045;-67
2023/10/26 10:25:09;;;;;;;30.60;20.58;;;10.90;99.90;;;;;;5013988;28;20046;-68
2023/10/26 10:27:34;;;;;;;28.13;17.80;;;11.10;99.90;;;;;;5047162;28;20049;-67
2023/10/26 10:30:07;;;;;;;26.98;17.50;;;11.10;99.90;;;;;;5047044;28;20384;-68
2023/10/26 10:32:46;;;;;;;23.92;16.88;;;11.20;99.90;;;;;;5014862;28;20111;-67
2023/10/26 10:35:25;;;;;;;24.13;17.02;;;11.30;99.90;;;;;;5046690;28;20053;-68
2023/10/26 10:38:15;;;;;;;29.30;18.73;;;11.40;99.90;;;;;;5047240;28;20052;-67
2023/10/26 10:41:01;;;;;;;23.65;16.05;;;11.40;99.90;;;;;;5047603;28;20103;-67
2023/10/26 10:43:33;;;;;;;24.55;17.08;;;11.30;99.90;;;;;;5013893;28;20124;-68
2023/10/26 10:46:20;;;;;;;28.52;19.15;;;11.30;99.90;;;;;;5013983;28;20041;-68
2023/10/26 10:49:01;;;;;;;28.00;18.83;;;11.40;99.90;;;;;;5014234;28;20041;-67
2023/10/26 10:51:46;;;;;;;25.88;17.63;;;11.40;99.90;;;;;;5047229;28;20095;-67
2023/10/26 10:54:17;;;;;;;23.48;16.38;;;11.40;99.90;;;;;;5031109;28;20064;-67
2023/10/26 10:56:48;;;;;;;25.33;16.63;;;11.30;99.90;;;;;;5031559;28;20479;-68
2023/10/26 10:59:30;;;;;;;23.85;16.20;;;11.20;99.90;;;;;;5013744;28;20044;-68
2023/10/26 11:02:07;;;;;;;28.92;17.67;;;11.20;99.90;;;;;;5046925;28;20113;-68
2023/10/26 11:04:33;;;;;;;27.17;17.58;;;11.20;99.90;;;;;;5013759;28;20120;-68
2023/10/26 11:06:59;;;;;;;23.52;15.52;;;11.30;99.90;;;;;;5046751;28;20129;-68
2023/10/26 11:09:37;;;;;;;35.88;22.52;;;11.30;99.90;;;;;;5031469;28;20038;-67
2023/10/26 11:12:10;;;;;;;40.88;24.80;;;11.20;99.90;;;;;;5046282;28;20064;-68
2023/10/26 11:14:36;;;;;;;59.72;34.55;;;11.30;99.90;;;;;;5047596;28;20073;-68
2023/10/26 11:17:02;;;;;;;45.15;26.83;;;11.20;99.90;;;;;;5013287;28;20477;-68
2023/10/26 11:19:27;;;;;;;32.40;19.88;;;11.20;99.90;;;;;;5014231;28;20094;-68
2023/10/26 11:21:55;;;;;;;22.88;16.25;;;11.10;99.90;;;;;;5030025;28;20073;-68
2023/10/26 11:24:29;;;;;;;33.00;21.20;;;11.10;99.90;;;;;;5046766;28;20042;-68
2023/10/26 11:27:12;;;;;;;33.47;22.10;;;11.00;99.90;;;;;;5013590;28;20068;-67
2023/10/26 11:29:38;;;;;;;27.95;17.13;;;11.00;99.90;;;;;;5047221;28;20053;-68
2023/10/26 11:32:16;;;;;;;23.45;17.75;;;11.10;99.90;;;;;;5030489;28;20099;-68
2023/10/26 11:35:02;;;;;;;27.58;18.20;;;11.20;99.90;;;;;;5014269;28;20486;-68
2023/10/26 11:37:27;;;;;;;29.25;16.75;;;11.20;99.90;;;;;;5046522;28;20045;-68
2023/10/26 11:39:53;;;;;;;26.35;19.00;;;11.20;99.90;;;;;;5031137;28;20037;-68
2023/10/26 11:42:19;;;;;;;31.50;20.35;;;11.10;99.90;;;;;;5013900;28;20501;-68
2023/10/26 11:44:56;;;;;;;24.35;15.68;;;11.00;99.90;;;;;;5046849;28;20390;-68
2023/10/26 11:47:22;;;;;;;28.33;17.83;;;11.00;99.90;;;;;;5014120;28;20045;-67
2023/10/26 11:49:47;;;;;;;27.80;18.42;;;11.00;99.90;;;;;;5033179;28;20128;-67
2023/10/26 11:52:13;;;;;;;30.77;20.35;;;11.00;99.90;;;;;;5049533;28;20052;-68
2023/10/26 11:54:51;;;;;;;38.40;26.40;;;11.00;99.90;;;;;;5017265;28;20037;-68
2023/10/26 11:57:17;;;;;;;30.25;19.45;;;10.90;99.90;;;;;;5050185;28;20041;-67
2023/10/26 11:59:43;;;;;;;28.63;17.65;;;11.10;99.90;;;;;;5050221;28;20119;-67
2023/10/26 12:02:08;;;;;;;29.15;20.52;;;11.10;99.90;;;;;;5016843;28;20470;-68
2023/10/26 12:04:34;;;;;;;33.10;22.15;;;11.20;99.90;;;;;;5034984;28;20060;-68
2023/10/26 12:07:05;;;;;;;25.58;16.83;;;11.20;99.90;;;;;;5049305;28;20049;-68
2023/10/26 12:09:30;;;;;;;23.30;15.55;;;11.10;99.90;;;;;;5033539;28;20037;-68
2023/10/26 12:11:56;;;;;;;24.92;16.75;;;11.10;99.90;;;;;;5049476;28;20053;-67
2023/10/26 12:14:22;;;;;;;25.23;17.05;;;11.10;99.90;;;;;;5049657;28;20057;-68
2023/10/26 12:16:47;;;;;;;28.92;20.52;;;11.10;99.90;;;;;;5033304;28;20037;-68
2023/10/26 12:19:13;;;;;;;25.83;16.17;;;11.20;99.90;;;;;;5016600;28;20500;-67
2023/10/26 12:21:39;;;;;;;37.47;22.30;;;11.20;99.90;;;;;;5016467;28;20083;-68
2023/10/26 12:24:04;;;;;;;29.42;21.00;;;11.20;99.90;;;;;;5049253;28;20084;-67
2023/10/26 12:26:30;;;;;;;35.85;23.17;;;11.10;99.90;;;;;;5050415;28;20037;-68
2023/10/26 12:28:56;;;;;;;32.72;23.30;;;11.20;99.90;;;;;;5048780;28;20048;-67
2023/10/26 12:31:21;;;;;;;36.47;26.08;;;11.10;99.90;;;;;;5051036;28;20049;-68
2023/10/26 12:33:47;;;;;;;26.30;17.05;;;11.10;99.90;;;;;;5016340;28;20127;-67